Time;durP1;ratioP1;P1;durP2;ratioP2;P2;SDS_P1;SDS_P2;PMS_P1;PMS_P2;Temp;Humidity;BMP_temperature;BMP_pressure;BME280_temperature;BME280_humidity;BME280_pressure;Samples;Min_cycle;Max_cycle;Signal;HPM_P1;HPM_P2
2022/08/16 07:29:25;;;;;;;1.80;0.80;;;25.70;68.80;;;;;;4978228;28;20249;-83
2022/08/16 07:31:52;;;;;;;6.95;1.10;;;25.70;69.60;;;;;;4980916;28;20289;-83
2022/08/16 07:34:19;;;;;;;0.85;0.80;;;25.70;69.00;;;;;;4979791;28;20323;-79
2022/08/16 07:36:46;;;;;;;9.38;1.17;;;25.70;69.00;;;;;;4976514;28;20209;-78
2022/08/16 07:39:13;;;;;;;3.42;1.35;;;25.70;69.20;;;;;;4976058;28;20293;-78
2022/08/16 07:41:43;;;;;;;4.15;1.25;;;25.70;69.30;;;;;;4976384;28;20203;-77
2022/08/16 07:44:10;;;;;;;6.63;1.50;;;25.70;70.10;;;;;;4975956;28;20658;-78
2022/08/16 07:46:38;;;;;;;27.70;3.05;;;25.70;69.30;;;;;;4976031;28;20209;-77
2022/08/16 07:49:05;;;;;;;4.47;2.05;;;25.70;69.20;;;;;;4976021;28;20681;-77
2022/08/16 07:51:33;;;;;;;8.45;2.13;;;25.70;69.00;;;;;;5003239;22;20209;-77
2022/08/16 07:54:01;;;;;;;2.25;1.83;;;25.70;68.70;;;;;;5054682;28;20216;-76
2022/08/16 07:56:28;;;;;;;2.40;2.15;;;25.60;68.10;;;;;;5054726;28;20196;-75
2022/08/16 07:58:55;;;;;;;2.80;1.75;;;25.60;67.80;;;;;;5054311;28;20200;-75
2022/08/16 08:01:23;;;;;;;2.03;1.92;;;25.60;67.60;;;;;;5054329;28;20689;-75
2022/08/16 08:03:52;;;;;;;5.25;2.00;;;25.60;67.60;;;;;;5054161;28;20592;-75
2022/08/16 08:06:21;;;;;;;2.50;2.08;;;25.50;67.10;;;;;;5054142;28;20559;-76
2022/08/16 08:08:49;;;;;;;5.95;2.17;;;25.50;66.70;;;;;;5054418;28;20204;-78
2022/08/16 08:11:15;;;;;;;3.58;2.40;;;25.50;66.40;;;;;;5054435;28;20663;-77
2022/08/16 08:13:42;;;;;;;2.88;2.30;;;25.40;66.90;;;;;;5054629;28;20220;-77
2022/08/16 08:16:10;;;;;;;4.15;2.20;;;25.50;66.20;;;;;;5054053;28;20671;-78
2022/08/16 08:18:36;;;;;;;2.42;2.25;;;25.40;65.90;;;;;;5055540;28;20207;-81
2022/08/16 08:21:06;;;;;;;4.15;2.22;;;25.40;65.60;;;;;;5055459;28;20200;-81
2022/08/16 08:23:35;;;;;;;1.92;1.83;;;25.40;65.40;;;;;;5055557;28;20277;-81
2022/08/16 08:26:02;;;;;;;5.38;2.42;;;25.40;65.20;;;;;;5056260;28;20672;-82
2022/08/16 08:28:30;;;;;;;10.30;2.75;;;25.40;65.00;;;;;;5055669;28;20200;-84
2022/08/16 08:30:57;;;;;;;3.22;2.85;;;25.40;64.90;;;;;;5054654;28;20659;-81
2022/08/16 08:33:24;;;;;;;2.72;2.60;;;25.40;64.90;;;;;;5055674;28;20216;-81
2022/08/16 08:35:52;;;;;;;15.02;2.88;;;25.40;64.90;;;;;;5055250;28;20286;-84
2022/08/16 08:38:22;;;;;;;8.02;3.25;;;25.50;64.90;;;;;;5056380;28;20291;-82
2022/08/16 08:40:49;;;;;;;7.35;3.38;;;25.50;64.80;;;;;;5059152;28;20518;-83
2022/08/16 08:43:16;;;;;;;10.25;3.40;;;25.50;64.70;;;;;;5066752;28;20224;-84
2022/08/16 08:45:43;;;;;;;4.20;2.97;;;25.50;64.60;;;;;;5066047;28;20223;-86
2022/08/16 08:48:09;;;;;;;9.23;2.70;;;25.50;64.40;;;;;;5055895;28;20204;-85
2022/08/16 08:50:37;;;;;;;9.48;2.80;;;25.50;64.40;;;;;;5058053;28;20279;-84
2022/08/16 08:53:04;;;;;;;5.95;2.70;;;25.50;64.30;;;;;;5056653;28;20231;-85
2022/08/16 08:55:32;;;;;;;8.93;3.00;;;25.60;64.30;;;;;;5056895;28;20211;-85
2022/08/16 08:57:59;;;;;;;9.05;2.80;;;25.60;64.30;;;;;;5056859;28;20287;-84
2022/08/16 09:00:28;;;;;;;7.57;2.80;;;25.50;64.20;;;;;;5056424;28;20291;-85
2022/08/16 09:02:56;;;;;;;3.50;2.40;;;25.60;65.00;;;;;;5057911;28;20248;-83
2022/08/16 09:05:25;;;;;;;6.35;3.17;;;25.60;64.20;;;;;;5059478;28;20356;-83
2022/08/16 09:07:52;;;;;;;3.70;2.75;;;25.60;64.10;;;;;;5060101;28;20227;-82
2022/08/16 09:10:19;;;;;;;8.23;2.80;;;25.60;64.00;;;;;;5058308;28;20618;-84
2022/08/16 09:12:47;;;;;;;5.07;2.67;;;25.60;63.70;;;;;;5056025;28;20303;-84
2022/08/16 09:15:16;;;;;;;2.63;2.28;;;25.60;63.60;;;;;;5056293;28;20633;-85
2022/08/16 09:17:43;;;;;;;3.25;2.78;;;25.60;63.60;;;;;;5057535;28;20267;-87
2022/08/16 09:20:13;;;;;;;6.35;2.50;;;25.60;63.60;;;;;;5056121;28;20294;-84
2022/08/16 09:22:41;;;;;;;2.83;2.63;;;25.60;63.50;;;;;;5055793;28;20597;-84
2022/08/16 09:25:08;;;;;;;2.42;2.17;;;25.60;63.40;;;;;;5054405;28;20216;-85
2022/08/16 09:27:36;;;;;;;9.18;2.67;;;25.70;63.40;;;;;;5055625;28;20207;-86
2022/08/16 09:30:05;;;;;;;2.80;2.60;;;25.70;63.40;;;;;;5058289;28;20196;-84
2022/08/16 09:32:32;;;;;;;5.00;2.92;;;25.70;63.30;;;;;;5054375;28;20255;-83
2022/08/16 09:35:00;;;;;;;7.20;3.22;;;25.70;63.20;;;;;;5056355;28;20239;-84
2022/08/16 09:37:29;;;;;;;3.10;2.45;;;25.70;63.20;;;;;;5058055;28;20275;-86
2022/08/16 09:39:56;;;;;;;5.07;2.90;;;25.70;63.10;;;;;;5057647;28;20204;-86
2022/08/16 09:42:23;;;;;;;6.50;2.63;;;25.70;63.10;;;;;;5055794;28;20298;-85
2022/08/16 09:44:49;;;;;;;3.63;2.20;;;25.70;63.00;;;;;;5056804;28;20303;-86
2022/08/16 09:47:18;;;;;;;3.13;2.50;;;25.80;63.00;;;;;;5055863;28;20290;-85
2022/08/16 09:49:45;;;;;;;2.80;2.60;;;25.80;62.90;;;;;;5056626;28;20263;-84
2022/08/16 09:52:12;;;;;;;4.53;2.72;;;25.80;62.80;;;;;;5054897;28;20318;-83
2022/08/16 09:54:40;;;;;;;6.00;2.70;;;25.80;62.80;;;;;;5053884;28;20279;-83
2022/08/16 09:57:07;;;;;;;2.22;2.03;;;25.80;62.70;;;;;;5053439;28;20573;-84
2022/08/16 09:59:34;;;;;;;6.15;2.60;;;25.80;62.70;;;;;;5054621;28;20223;-82
2022/08/16 10:02:01;;;;;;;3.25;2.45;;;25.80;62.60;;;;;;5054721;28;20311;-82
2022/08/16 10:04:29;;;;;;;4.70;2.72;;;25.80;62.50;;;;;;5054713;28;20293;-83
2022/08/16 10:06:57;;;;;;;3.17;2.50;;;25.80;62.30;;;;;;5054248;28;20224;-83
2022/08/16 10:09:27;;;;;;;6.07;2.35;;;25.80;62.20;;;;;;5054119;28;20253;-83
2022/08/16 10:14:39;;;;;;;3.88;2.70;;;25.80;61.70;;;;;;5053576;28;20697;-84
2022/08/16 10:17:06;;;;;;;6.07;2.83;;;25.80;61.70;;;;;;5056413;28;20609;-84
2022/08/16 10:19:34;;;;;;;3.42;2.42;;;25.80;61.70;;;;;;5056750;28;20674;-81
2022/08/16 10:22:01;;;;;;;12.65;3.20;;;25.80;62.40;;;;;;5056915;28;20223;-80
2022/08/16 10:24:28;;;;;;;7.50;2.95;;;25.80;61.60;;;;;;5057071;28;20196;-80
2022/08/16 10:26:56;;;;;;;11.02;2.88;;;25.80;61.60;;;;;;5056650;28;20226;-80
2022/08/16 10:29:23;;;;;;;12.23;3.22;;;25.80;61.60;;;;;;5057426;28;20232;-81
2022/08/16 10:31:50;;;;;;;7.32;3.55;;;25.80;61.60;;;;;;5058581;28;20307;-81
2022/08/16 10:34:17;;;;;;;14.35;3.78;;;25.80;61.50;;;;;;5059622;28;20231;-81
2022/08/16 10:36:45;;;;;;;8.27;2.95;;;25.80;61.30;;;;;;5060665;28;20207;-79
2022/08/16 10:39:12;;;;;;;5.43;3.10;;;25.80;61.20;;;;;;5058459;28;20287;-83
2022/08/16 10:41:39;;;;;;;9.38;2.63;;;25.80;61.00;;;;;;5058703;28;20283;-82
2022/08/16 10:44:06;;;;;;;7.60;2.92;;;25.80;60.90;;;;;;5059344;28;20287;-80
2022/08/16 10:46:34;;;;;;;10.98;2.78;;;25.80;60.80;;;;;;5058791;28;20247;-87
2022/08/16 10:49:01;;;;;;;10.25;2.92;;;25.80;60.90;;;;;;5056826;28;20231;-84
2022/08/16 10:51:28;;;;;;;5.82;2.55;;;25.80;60.90;;;;;;5063322;28;20231;-81
2022/08/16 10:53:57;;;;;;;15.07;2.90;;;25.80;60.70;;;;;;5069434;28;20195;-80
2022/08/16 10:56:24;;;;;;;19.02;3.83;;;25.90;60.50;;;;;;5068631;28;20591;-81
2022/08/16 10:58:51;;;;;;;20.05;3.40;;;25.90;60.30;;;;;;5069044;28;20222;-81
2022/08/16 11:01:18;;;;;;;17.52;3.47;;;25.80;60.00;;;;;;5061374;28;20377;-81
2022/08/16 11:03:45;;;;;;;8.38;3.65;;;25.80;59.80;;;;;;5060289;28;20263;-81
2022/08/16 11:06:12;;;;;;;18.10;4.00;;;25.80;59.70;;;;;;5061608;28;20274;-82
2022/08/16 11:08:40;;;;;;;18.88;3.70;;;25.80;59.60;;;;;;5062435;28;20246;-82
2022/08/16 11:11:10;;;;;;;15.48;4.10;;;25.80;59.50;;;;;;5062868;28;20200;-83
2022/08/16 11:13:38;;;;;;;15.43;3.33;;;25.80;59.40;;;;;;5063830;28;20571;-83
2022/08/16 11:16:07;;;;;;;15.95;3.08;;;25.80;59.30;;;;;;5063865;28;20219;-83
2022/08/16 11:18:35;;;;;;;18.30;4.20;;;25.80;59.20;;;;;;5062616;28;20220;-82
2022/08/16 11:21:03;;;;;;;13.07;3.83;;;25.80;59.10;;;;;;5062631;28;20208;-81
2022/08/16 11:23:31;;;;;;;17.38;3.40;;;25.80;59.00;;;;;;5062811;28;20220;-82
2022/08/16 11:25:58;;;;;;;13.43;3.53;;;25.80;58.90;;;;;;5064418;28;20212;-82
2022/08/16 11:28:27;;;;;;;15.90;4.38;;;25.80;58.80;;;;;;5062892;28;20203;-84
2022/08/16 11:30:54;;;;;;;12.43;3.55;;;25.80;58.60;;;;;;5061462;28;20236;-78
2022/08/16 11:33:21;;;;;;;10.07;3.00;;;25.80;58.60;;;;;;5056728;28;20315;-78
2022/08/16 11:35:47;;;;;;;;;;;25.80;58.50;;;;;;5057649;28;20634;-78
2022/08/16 11:38:16;;;;;;;;;;;25.80;58.50;;;;;;5057378;28;19970;-78
2022/08/16 11:40:45;;;;;;;;;;;25.90;59.00;;;;;;5056818;28;19951;-78
2022/08/16 11:43:12;;;;;;;;;;;25.90;58.30;;;;;;5056680;28;19920;-78
2022/08/16 11:45:41;;;;;;;;;;;25.80;58.20;;;;;;5056626;28;20268;-78
2022/08/16 11:48:07;;;;;;;;;;;25.80;58.20;;;;;;5056511;28;20288;-78
2022/08/16 11:50:34;;;;;;;;;;;25.80;58.20;;;;;;5057801;28;19987;-78
2022/08/16 11:53:02;;;;;;;;;;;25.80;58.20;;;;;;5056725;28;19925;-80
2022/08/16 11:55:28;;;;;;;;;;;25.80;58.10;;;;;;5058447;28;20015;-83
2022/08/16 11:57:55;;;;;;;;;;;25.80;58.60;;;;;;5055655;28;20003;-82
2022/08/16 12:00:22;;;;;;;;;;;25.80;58.10;;;;;;5055786;28;20003;-82
2022/08/16 12:02:50;;;;;;;;;;;25.80;58.00;;;;;;5056132;28;19927;-80
2022/08/16 12:05:17;;;;;;;;;;;25.80;58.10;;;;;;5056120;28;19922;-81
2022/08/16 12:07:44;;;;;;;;;;;25.80;58.10;;;;;;5055995;28;19979;-78
2022/08/16 12:10:13;;;;;;;;;;;25.80;58.70;;;;;;5055746;28;20023;-80
2022/08/16 12:12:40;;;;;;;;;;;25.80;58.00;;;;;;5056680;28;20003;-79
2022/08/16 12:15:07;;;;;;;;;;;25.80;58.00;;;;;;5058191;28;20008;-79
2022/08/16 12:17:34;;;;;;;;;;;25.80;58.00;;;;;;5060320;28;20332;-80
2022/08/16 12:20:03;;;;;;;;;;;25.80;57.90;;;;;;5058068;28;19920;-81
2022/08/16 12:22:30;;;;;;;;;;;25.80;57.90;;;;;;5057955;28;19968;-81
2022/08/16 12:24:56;;;;;;;;;;;25.80;57.80;;;;;;5057401;28;19921;-81
2022/08/16 12:27:24;;;;;;;;;;;25.80;57.70;;;;;;5056641;28;20438;-82
2022/08/16 12:29:51;;;;;;;;;;;25.80;57.60;;;;;;5057616;28;19921;-82
2022/08/16 12:32:19;;;;;;;;;;;25.80;57.50;;;;;;5056892;28;19921;-82
2022/08/16 12:34:46;;;;;;;;;;;25.80;57.40;;;;;;5057116;28;19927;-82
2022/08/16 12:37:15;;;;;;;;;;;25.80;57.90;;;;;;5057248;28;19931;-82
2022/08/16 12:39:42;;;;;;;;;;;25.80;57.30;;;;;;5056865;28;20391;-82
2022/08/16 12:42:09;;;;;;;;;;;25.80;57.10;;;;;;5057208;28;20015;-80
2022/08/16 12:44:36;;;;;;;;;;;25.80;57.10;;;;;;5057092;28;19920;-83
2022/08/16 12:49:47;;;;;;;;;;;25.80;56.80;;;;;;5057779;28;19970;-79
2022/08/16 12:52:15;;;;;;;;;;;25.80;56.70;;;;;;5055524;28;19927;-79
2022/08/16 12:54:42;;;;;;;;;;;25.80;56.50;;;;;;5054190;28;19924;-77
2022/08/16 12:57:08;;;;;;;;;;;25.80;56.50;;;;;;5055486;28;20364;-78
2022/08/16 12:59:36;;;;;;;;;;;25.80;56.50;;;;;;5054345;28;19920;-77
2022/08/16 13:02:03;;;;;;;;;;;25.80;56.50;;;;;;5053903;28;20376;-77
2022/08/16 13:04:32;;;;;;;;;;;25.80;56.50;;;;;;5054292;28;19920;-79
2022/08/16 13:06:58;;;;;;;;;;;25.80;56.50;;;;;;5054987;28;19921;-78
2022/08/16 13:09:29;;;;;;;;;;;25.80;56.50;;;;;;5054690;28;19920;-79
2022/08/16 13:12:01;;;;;;;;;;;25.80;56.40;;;;;;5054854;28;19920;-79
2022/08/16 13:14:29;;;;;;;;;;;25.80;56.20;;;;;;5054935;28;19947;-79
2022/08/16 13:16:56;;;;;;;;;;;25.80;56.10;;;;;;5054624;28;20332;-78
2022/08/16 13:19:22;;;;;;;;;;;25.80;56.00;;;;;;5054249;28;19990;-78
2022/08/16 13:21:49;;;;;;;;;;;25.80;55.90;;;;;;5053971;28;19925;-77
2022/08/16 13:24:16;;;;;;;;;;;25.80;55.80;;;;;;5054093;28;19927;-77
2022/08/16 13:26:44;;;;;;;;;;;25.80;55.70;;;;;;5054613;28;19943;-79
2022/08/16 13:29:11;;;;;;;;;;;25.80;55.70;;;;;;5054411;28;20020;-77
2022/08/16 13:31:38;;;;;;;;;;;25.90;56.20;;;;;;5054237;28;19927;-79
2022/08/16 13:34:04;;;;;;;;;;;25.90;55.50;;;;;;5056451;28;20008;-79
2022/08/16 13:36:31;;;;;;;;;;;25.90;55.50;;;;;;5054883;28;19927;-79
2022/08/16 13:38:58;;;;;;;;;;;25.90;55.50;;;;;;5054872;28;19927;-79
2022/08/16 13:41:25;;;;;;;;;;;25.90;55.40;;;;;;5055304;28;19971;-79
2022/08/16 13:43:54;;;;;;;;;;;25.90;55.30;;;;;;5055669;28;20071;-79
2022/08/16 13:46:20;;;;;;;;;;;26.00;55.20;;;;;;5055384;28;20439;-79
2022/08/16 13:48:47;;;;;;;;;;;26.00;55.10;;;;;;5056070;28;19921;-79
2022/08/16 13:51:14;;;;;;;;;;;26.00;55.10;;;;;;5057644;28;19952;-79
2022/08/16 13:53:41;;;;;;;;;;;26.00;55.00;;;;;;5057938;28;19920;-79
2022/08/16 13:56:08;;;;;;;;;;;26.00;54.80;;;;;;5057700;28;19921;-77
2022/08/16 13:58:35;;;;;;;;;;;26.10;54.80;;;;;;5057881;28;19927;-78
2022/08/16 14:01:03;;;;;;;;;;;26.10;54.70;;;;;;5057885;28;19928;-78
2022/08/16 14:03:29;;;;;;;;;;;26.10;54.70;;;;;;5057581;28;19921;-78
2022/08/16 14:05:57;;;;;;;;;;;26.10;54.60;;;;;;5057572;28;19967;-77
2022/08/16 14:08:23;;;;;;;;;;;26.10;54.50;;;;;;5057692;28;19920;-78
2022/08/16 14:10:50;;;;;;;;;;;26.10;54.40;;;;;;5058282;28;19967;-79
2022/08/16 14:13:17;;;;;;;;;;;26.10;54.20;;;;;;5057441;28;20376;-78
2022/08/16 14:15:43;;;;;;;;;;;26.20;54.20;;;;;;5057610;28;19920;-78
2022/08/16 14:18:12;;;;;;;;;;;26.20;54.00;;;;;;5057620;28;19924;-78
2022/08/16 14:20:38;;;;;;;;;;;26.20;53.90;;;;;;5057317;28;20011;-78
2022/08/16 14:23:05;;;;;;;;;;;26.10;53.80;;;;;;5057445;28;20007;-78
2022/08/16 14:25:32;;;;;;;;;;;26.10;53.70;;;;;;5057417;28;19924;-78
2022/08/16 14:27:58;;;;;;;;;;;26.10;53.50;;;;;;5057598;28;19928;-78
2022/08/16 14:30:25;;;;;;;;;;;26.10;53.40;;;;;;5057322;28;19921;-78
2022/08/16 14:32:52;;;;;;;;;;;26.10;53.20;;;;;;5057429;28;19964;-78
2022/08/16 14:35:21;;;;;;;;;;;26.10;53.10;;;;;;5056938;28;20015;-78
2022/08/16 14:37:48;;;;;;;;;;;26.10;53.00;;;;;;5056831;28;19927;-77
2022/08/16 14:40:15;;;;;;;;;;;26.10;52.90;;;;;;5057347;28;19968;-78
2022/08/16 14:42:42;;;;;;;;;;;26.10;52.70;;;;;;5057326;28;20023;-78
2022/08/16 14:45:10;;;;;;;;;;;26.10;52.60;;;;;;5057551;28;19929;-78
2022/08/16 14:47:37;;;;;;;;;;;26.10;52.50;;;;;;5058185;28;19964;-79
2022/08/16 14:50:04;;;;;;;;;;;26.10;52.40;;;;;;5058096;28;19931;-79
2022/08/16 14:52:32;;;;;;;;;;;26.10;52.30;;;;;;5057919;28;19927;-79
2022/08/16 14:54:59;;;;;;;;;;;26.10;52.10;;;;;;5058365;28;20011;-79
2022/08/16 14:57:26;;;;;;;;;;;26.00;51.80;;;;;;5058600;28;19920;-79
2022/08/16 14:59:52;;;;;;;;;;;26.00;51.80;;;;;;5058217;28;19927;-79
2022/08/16 15:02:22;;;;;;;;;;;26.00;51.80;;;;;;5057244;28;19967;-79
2022/08/16 15:04:49;;;;;;;;;;;26.00;51.80;;;;;;5056622;28;20372;-81
2022/08/16 15:07:16;;;;;;;;;;;26.00;51.80;;;;;;5061559;28;19927;-82
2022/08/16 15:09:44;;;;;;;;;;;26.00;51.80;;;;;;5061243;28;19927;-81
2022/08/16 15:12:13;;;;;;;;;;;26.00;51.80;;;;;;5063136;28;19920;-81
2022/08/16 15:14:40;;;;;;;;;;;26.00;51.70;;;;;;5058488;28;19927;-82
2022/08/16 15:17:06;;;;;;;;;;;26.00;51.50;;;;;;5058342;28;20011;-82
2022/08/16 15:19:33;;;;;;;;;;;26.00;51.40;;;;;;5058331;28;20397;-82
2022/08/16 15:22:00;;;;;;;;;;;26.00;51.30;;;;;;5059334;28;19927;-81
2022/08/16 15:24:28;;;;;;;;;;;26.00;51.20;;;;;;5060822;28;19921;-80
2022/08/16 15:26:56;;;;;;;;;;;25.90;51.00;;;;;;5062496;28;20019;-80
2022/08/16 15:29:23;;;;;;;;;;;25.90;50.90;;;;;;5060129;28;20015;-79
2022/08/16 15:31:49;;;;;;;;;;;25.90;50.80;;;;;;5058831;28;20015;-78
2022/08/16 15:34:17;;;;;;;;;;;25.90;50.70;;;;;;5057765;28;20020;-79
2022/08/16 15:36:43;;;;;;;;;;;25.90;50.60;;;;;;5057319;28;20016;-78
2022/08/16 15:39:10;;;;;;;;;;;25.90;50.50;;;;;;5057808;28;20000;-78
2022/08/16 15:42:01;;;;;;;;;;;25.90;50.40;;;;;;5059643;28;19921;-78
2022/08/16 15:44:34;;;;;;;;;;;25.90;50.30;;;;;;5057705;28;19952;-79
2022/08/16 15:47:02;;;;;;;;;;;25.90;50.10;;;;;;5057868;28;19924;-78
2022/08/16 15:49:29;;;;;;;;;;;25.90;49.90;;;;;;5057861;28;19921;-78
2022/08/16 15:51:55;;;;;;;;;;;25.90;49.80;;;;;;5057224;28;20320;-79
2022/08/16 15:54:22;;;;;;;;;;;25.90;49.60;;;;;;5057189;28;20398;-78
2022/08/16 15:56:53;;;;;;;;;;;25.80;49.40;;;;;;5056304;28;19927;-78
2022/08/16 15:59:21;;;;;;;;;;;25.80;49.20;;;;;;5058800;28;19920;-78
2022/08/16 16:01:50;;;;;;;;;;;25.80;49.00;;;;;;5059394;28;19927;-78
2022/08/16 16:04:17;;;;;;;;;;;25.80;48.90;;;;;;5056559;28;19924;-78
2022/08/16 16:06:47;;;;;;;;;;;25.80;48.70;;;;;;5056513;28;20007;-79
2022/08/16 16:09:15;;;;;;;;;;;25.80;48.50;;;;;;5057711;28;20021;-78
2022/08/16 16:11:41;;;;;;;;;;;25.80;48.40;;;;;;5055936;28;19928;-78
2022/08/16 16:14:08;;;;;;;;;;;25.80;48.20;;;;;;5061907;28;19987;-79
2022/08/16 16:16:36;;;;;;;;;;;25.80;48.10;;;;;;5063415;28;19931;-78
2022/08/16 16:19:03;;;;;;;;;;;25.80;47.90;;;;;;5062117;28;20004;-78
2022/08/16 16:21:29;;;;;;;;;;;25.80;47.70;;;;;;5061856;28;20007;-79
2022/08/16 16:23:56;;;;;;;;;;;25.80;47.60;;;;;;5059747;28;19988;-78
2022/08/16 16:26:23;;;;;;;;;;;25.80;47.40;;;;;;5058047;28;19921;-78
2022/08/16 16:28:49;;;;;;;;;;;25.80;47.20;;;;;;5056611;28;19921;-79
2022/08/16 16:31:17;;;;;;;;;;;25.80;47.00;;;;;;5057667;28;19927;-78
2022/08/16 16:33:47;;;;;;;;;;;25.80;46.80;;;;;;5057270;28;19951;-78
2022/08/16 16:36:16;;;;;;;;;;;25.80;46.80;;;;;;5058448;28;19921;-78
2022/08/16 16:38:44;;;;;;;;;;;25.80;46.80;;;;;;5057528;28;20266;-78
2022/08/16 16:41:11;;;;;;;;;;;25.80;46.80;;;;;;5057552;28;19920;-78
2022/08/16 16:43:39;;;;;;;;;;;25.80;47.10;;;;;;5060296;28;19928;-80
2022/08/16 16:46:06;;;;;;;;;;;25.80;46.30;;;;;;5058363;28;19924;-78
2022/08/16 16:48:33;;;;;;;;;;;25.70;46.10;;;;;;5060205;28;19942;-79
2022/08/16 16:51:02;;;;;;;;;;;25.70;45.90;;;;;;5065565;28;20007;-80
2022/08/16 16:53:29;;;;;;;;;;;25.70;45.70;;;;;;5064740;28;19928;-79
2022/08/16 16:55:55;;;;;;;;;;;25.70;45.60;;;;;;5067860;28;19929;-79
2022/08/16 17:01:07;;;;;;;;;;;25.70;45.40;;;;;;5056517;28;19963;-77
2022/08/16 17:03:34;;;;;;;;;;;25.70;45.20;;;;;;5062019;28;19924;-78
2022/08/16 17:06:02;;;;;;;;;;;25.70;45.10;;;;;;5058539;28;19920;-79
2022/08/16 17:08:29;;;;;;;;;;;25.70;45.00;;;;;;5059551;28;19927;-80
2022/08/16 17:10:56;;;;;;;;;;;25.80;45.60;;;;;;5060319;28;19992;-80
2022/08/16 17:13:24;;;;;;;;;;;25.80;45.10;;;;;;5065468;28;20283;-80
2022/08/16 17:15:51;;;;;;;;;;;25.80;45.00;;;;;;5068911;28;19952;-78
2022/08/16 17:18:19;;;;;;;;;;;25.80;45.00;;;;;;5069353;28;19927;-80
2022/08/16 17:20:46;;;;;;;;;;;25.80;44.90;;;;;;5066400;28;19988;-81
2022/08/16 17:23:15;;;;;;;;;;;25.80;44.80;;;;;;5067264;28;19921;-80
2022/08/16 17:25:42;;;;;;;;;;;25.80;44.80;;;;;;5071638;28;20326;-79
2022/08/16 17:28:09;;;;;;;;;;;25.80;44.70;;;;;;5072893;28;20003;-79
2022/08/16 17:30:36;;;;;;;;;;;25.80;44.70;;;;;;5068606;28;19940;-79
2022/08/16 17:33:05;;;;;;;;;;;25.80;44.70;;;;;;5068902;28;19924;-79
2022/08/16 17:35:33;;;;;;;;;;;25.80;44.60;;;;;;5069831;28;19985;-79
2022/08/16 17:38:03;;;;;;;;;;;25.80;44.60;;;;;;5066033;28;19967;-78
2022/08/16 17:40:33;;;;;;;;;;;25.80;44.60;;;;;;5064611;28;20019;-79
2022/08/16 17:43:00;;;;;;;;;;;25.80;44.50;;;;;;5066458;28;20402;-79
2022/08/16 17:45:27;;;;;;;;;;;25.80;44.60;;;;;;5066172;28;19921;-79
2022/08/16 17:47:54;;;;;;;;;;;25.80;44.50;;;;;;5067538;28;19959;-79
2022/08/16 17:50:21;;;;;;;;;;;25.80;44.50;;;;;;5067124;28;20008;-80
2022/08/16 17:52:48;;;;;;;;;;;25.80;44.50;;;;;;5066612;28;20012;-80
2022/08/16 17:55:17;;;;;;;;;;;25.80;44.60;;;;;;5067580;28;19967;-80
2022/08/16 17:57:45;;;;;;;;;;;25.80;44.50;;;;;;5066822;28;19975;-80
2022/08/16 18:00:13;;;;;;;;;;;25.80;44.50;;;;;;5066969;28;19928;-80
2022/08/16 18:02:41;;;;;;;;;;;25.80;44.60;;;;;;5066111;28;19921;-80
2022/08/16 18:05:11;;;;;;;;;;;25.80;44.60;;;;;;5066206;28;19967;-80
2022/08/16 18:07:38;;;;;;;;;;;25.80;44.60;;;;;;5066271;28;19927;-79
2022/08/16 18:10:05;;;;;;;;;;;25.80;44.60;;;;;;5066464;28;19920;-79
2022/08/16 18:12:32;;;;;;;;;;;25.80;44.60;;;;;;5066341;28;19928;-80
2022/08/16 18:15:01;;;;;;;;;;;25.80;44.60;;;;;;5066421;28;20016;-80
2022/08/16 18:17:27;;;;;;;;;;;25.80;44.60;;;;;;5065452;28;20015;-79
2022/08/16 18:19:54;;;;;;;;;;;25.80;44.70;;;;;;5066471;28;19960;-79
2022/08/16 18:22:20;;;;;;;;;;;25.80;44.70;;;;;;5064812;28;20004;-80
2022/08/16 18:24:48;;;;;;;;;;;25.80;44.70;;;;;;5064670;28;19923;-79
2022/08/16 18:27:15;;;;;;;;;;;25.80;44.70;;;;;;5064874;28;19976;-79
2022/08/16 18:29:42;;;;;;;;;;;25.70;44.70;;;;;;5064536;28;20024;-79
2022/08/16 18:32:10;;;;;;;;;;;25.70;44.70;;;;;;5064904;28;19983;-79
2022/08/16 18:34:37;;;;;;;;;;;25.70;44.70;;;;;;5064257;28;20288;-79
2022/08/16 18:37:04;;;;;;;;;;;25.70;44.80;;;;;;5063108;28;20019;-79
2022/08/16 18:39:31;;;;;;;;;;;25.70;44.80;;;;;;5064061;28;20428;-79
2022/08/16 18:41:57;;;;;;;;;;;25.70;44.80;;;;;;5064090;28;20011;-79
2022/08/16 18:44:24;;;;;;;;;;;25.70;44.90;;;;;;5063593;28;19976;-79
2022/08/16 18:46:51;;;;;;;;;;;25.70;44.90;;;;;;5062779;28;20011;-79
2022/08/16 18:49:19;;;;;;;;;;;25.70;44.90;;;;;;5061261;28;19920;-79
2022/08/16 18:51:46;;;;;;;;;;;25.70;45.00;;;;;;5061891;28;20447;-82
2022/08/16 18:54:16;;;;;;;;;;;25.70;45.00;;;;;;5061839;28;19920;-80
2022/08/16 18:56:43;;;;;;;;;;;25.70;45.10;;;;;;5061265;28;19943;-81
2022/08/16 18:59:09;;;;;;;;;;;25.70;45.10;;;;;;5060319;28;20455;-81
2022/08/16 19:01:36;;;;;;;;;;;25.70;45.10;;;;;;5060390;28;20015;-81
2022/08/16 19:04:03;;;;;;;;;;;25.70;45.20;;;;;;5061963;28;20391;-80
2022/08/16 19:06:31;;;;;;;;;;;25.70;45.20;;;;;;5060910;28;20011;-80
2022/08/16 19:08:58;;;;;;;;;;;25.70;45.30;;;;;;5065900;28;20011;-81
2022/08/16 19:11:27;;;;;;;;;;;25.70;45.30;;;;;;5064865;28;20007;-81
2022/08/16 19:13:54;;;;;;;;;;;25.70;45.40;;;;;;5065382;28;19967;-81
2022/08/16 19:16:21;;;;;;;;;;;25.70;45.40;;;;;;5066245;28;19928;-80
2022/08/16 19:18:48;;;;;;;;;;;25.70;45.40;;;;;;5065728;28;19927;-80
2022/08/16 19:21:15;;;;;;;;;;;25.70;45.50;;;;;;5065294;28;20378;-80
2022/08/16 19:23:43;;;;;;;;;;;25.70;45.60;;;;;;5063729;28;20011;-81
2022/08/16 19:26:12;;;;;;;;;;;25.70;45.70;;;;;;5063618;28;20003;-80
2022/08/16 19:28:40;;;;;;;;;;;25.70;45.70;;;;;;5063840;28;20008;-81
2022/08/16 19:31:07;;;;;;;;;;;25.70;45.80;;;;;;5064238;28;19925;-80
2022/08/16 19:33:34;;;;;;;;;;;25.70;45.80;;;;;;5063883;28;19921;-80
2022/08/16 19:36:01;;;;;;;;;;;25.70;45.90;;;;;;5064039;28;19984;-80
2022/08/16 19:38:27;;;;;;;;;;;25.70;46.00;;;;;;5063005;28;20359;-80
2022/08/16 19:40:55;;;;;;;;;;;25.70;46.00;;;;;;5063446;28;20043;-80
2022/08/16 19:43:22;;;;;;;;;;;25.70;46.10;;;;;;5061989;28;19991;-81
2022/08/16 19:45:49;;;;;;;;;;;25.70;46.20;;;;;;5062029;28;19984;-80
2022/08/16 19:48:15;;;;;;;;;;;25.70;46.20;;;;;;5060947;28;20015;-80
2022/08/16 19:50:42;;;;;;;;;;;25.70;46.30;;;;;;5060651;28;20011;-81
2022/08/16 19:53:10;;;;;;;;;;;25.70;46.40;;;;;;5059367;28;20331;-80
2022/08/16 19:55:37;;;;;;;;;;;25.70;46.50;;;;;;5059286;28;20423;-81
2022/08/16 19:58:05;;;;;;;;;;;25.70;46.60;;;;;;5057986;28;20354;-78
2022/08/16 20:00:33;;;;;;;;;;;25.70;46.70;;;;;;5059055;28;20343;-79
2022/08/16 20:03:00;;;;;;;;;;;25.70;46.70;;;;;;5056542;28;19927;-82
2022/08/16 20:05:28;;;;;;;;;;;25.70;46.70;;;;;;5055838;28;19920;-82
2022/08/16 20:07:55;;;;;;;;;;;25.70;46.70;;;;;;5055497;28;19944;-82
2022/08/16 20:10:23;;;;;;;;;;;25.70;46.70;;;;;;5055100;28;20367;-82
2022/08/16 20:12:50;;;;;;;;;;;25.70;46.70;;;;;;5055263;28;19920;-82
2022/08/16 20:15:19;;;;;;;;;;;25.70;46.70;;;;;;5055420;28;19927;-82
2022/08/16 20:17:46;;;;;;;;;;;25.70;46.70;;;;;;5055251;28;20291;-82
2022/08/16 20:20:14;;;;;;;;;;;25.70;46.90;;;;;;5055299;28;19968;-82
2022/08/16 20:22:41;;;;;;;;;;;25.70;47.00;;;;;;5054763;28;19921;-81
2022/08/16 20:25:10;;;;;;;;;;;25.70;47.10;;;;;;5055171;28;20003;-81
2022/08/16 20:27:36;;;;;;;;;;;25.70;47.20;;;;;;5055064;28;19921;-82
2022/08/16 20:30:04;;;;;;;;;;;25.70;47.30;;;;;;5054907;28;19921;-82
2022/08/16 20:32:32;;;;;;;;;;;25.70;47.40;;;;;;5055194;28;20352;-82
2022/08/16 20:34:59;;;;;;;;;;;25.70;47.50;;;;;;5055086;28;20279;-82
2022/08/16 20:37:26;;;;;;;;;;;25.70;47.60;;;;;;5055277;28;19920;-80
2022/08/16 20:39:54;;;;;;;;;;;25.70;47.60;;;;;;5055294;28;19960;-80
2022/08/16 20:42:21;;;;;;;;;;;25.70;47.70;;;;;;5055520;28;19920;-80
2022/08/16 20:44:48;;;;;;;;;;;25.70;47.80;;;;;;5054955;28;20332;-79
2022/08/16 20:47:15;;;;;;;;;;;25.70;47.80;;;;;;5055951;28;19921;-79
2022/08/16 20:49:43;;;;;;;;;;;25.60;47.80;;;;;;5058530;28;19927;-79
2022/08/16 20:52:11;;;;;;;;;;;25.60;47.90;;;;;;5056013;28;19976;-78
2022/08/16 20:54:38;;;;;;;;;;;25.70;48.00;;;;;;5057771;28;20011;-78
2022/08/16 20:57:05;;;;;;;;;;;25.70;48.10;;;;;;5055112;28;19920;-78
2022/08/16 20:59:32;;;;;;;;;;;25.70;48.20;;;;;;5054897;28;19921;-78
2022/08/16 21:01:59;;;;;;;;;;;25.70;48.20;;;;;;5055005;28;20007;-78
2022/08/16 21:04:26;;;;;;;;;;;25.70;48.30;;;;;;5055326;28;19927;-78
2022/08/16 21:06:57;;;;;;;;;;;25.70;48.90;;;;;;5055480;28;20005;-78
2022/08/16 21:09:24;;;;;;;;;;;25.70;48.40;;;;;;5055476;28;19921;-78
2022/08/16 21:11:52;;;;;;;;;;;25.70;48.50;;;;;;5055820;28;19921;-78
2022/08/16 21:14:19;;;;;;;;;;;25.70;48.50;;;;;;5055817;28;19927;-78
2022/08/16 21:16:45;;;;;;;;;;;25.70;48.60;;;;;;5055507;28;19920;-78
2022/08/16 21:19:12;;;;;;;;;;;25.60;48.60;;;;;;5055702;28;20015;-78
2022/08/16 21:21:38;;;;;;;;;;;25.60;48.70;;;;;;5056454;28;20011;-78
2022/08/16 21:24:07;;;;;;;;;;;25.70;48.80;;;;;;5055656;28;19921;-78